TimeAKDT,TemperatureF,Dew PointF,Humidity,Sea Level PressureIn,VisibilityMPH,Wind Direction,Wind SpeedMPH,Gust SpeedMPH,PrecipitationIn,Events,Conditions,WindDirDegrees,DateUTC
12:53 AM,37.0,30.9,79,29.94,10.0,SSW,20.7,33.4,N/A,,Mostly Cloudy,200,2013-04-02 08:53:00
1:53 AM,37.0,30.0,76,29.97,10.0,SSW,19.6,26.5,N/A,,Overcast,200,2013-04-02 09:53:00
2:53 AM,37.0,30.0,76,30.00,10.0,SSW,17.3,24.2,N/A,,Overcast,200,2013-04-02 10:53:00
3:53 AM,37.0,30.0,76,30.01,10.0,SSW,18.4,26.5,N/A,,Overcast,200,2013-04-02 11:53:00
4:53 AM,37.0,30.0,76,30.03,10.0,SSW,16.1,25.3,N/A,,Overcast,200,2013-04-02 12:53:00
5:53 AM,37.0,30.0,76,30.05,10.0,SSW,11.5,23.0,N/A,,Overcast,200,2013-04-02 13:53:00
6:53 AM,36.0,30.0,79,30.07,10.0,SSW,13.8,23.0,N/A,,Mostly Cloudy,200,2013-04-02 14:53:00
7:53 AM,36.0,30.0,79,30.10,10.0,SSW,15.0,23.0,N/A,,Scattered Clouds,200,2013-04-02 15:53:00
8:53 AM,37.0,30.0,76,30.12,10.0,South,13.8,20.7,N/A,,Overcast,190,2013-04-02 16:53:00
9:53 AM,37.9,32.0,79,30.13,10.0,SSW,15.0,-,N/A,,Mostly Cloudy,200,2013-04-02 17:53:00
10:53 AM,39.0,30.9,73,30.14,10.0,SSW,15.0,23.0,N/A,,Clear,200,2013-04-02 18:53:00
11:53 AM,39.9,30.9,70,30.16,10.0,SSW,19.6,-,N/A,,Mostly Cloudy,200,2013-04-02 19:53:00
12:53 PM,41.0,30.9,67,30.17,10.0,SSW,17.3,-,N/A,,Overcast,210,2013-04-02 20:53:00
1:53 PM,39.9,28.9,65,30.17,10.0,SSW,19.6,-,N/A,,Mostly Cloudy,210,2013-04-02 21:53:00
2:53 PM,42.1,28.9,60,30.18,10.0,SSW,20.7,-,N/A,,Overcast,210,2013-04-02 22:53:00
3:53 PM,42.1,30.0,62,30.18,10.0,SSW,20.7,-,N/A,,Overcast,210,2013-04-02 23:53:00
4:53 PM,41.0,28.0,60,30.19,10.0,SSW,13.8,-,N/A,,Overcast,200,2013-04-03 00:53:00
5:53 PM,41.0,28.0,60,30.19,10.0,SSW,17.3,-,N/A,,Partly Cloudy,210,2013-04-03 01:53:00
6:53 PM,39.9,30.0,68,30.20,10.0,SSW,13.8,20.7,N/A,,Mostly Cloudy,200,2013-04-03 02:53:00
7:53 PM,39.0,30.0,70,30.22,10.0,South,15.0,21.9,N/A,,Partly Cloudy,190,2013-04-03 03:53:00
8:53 PM,37.9,30.0,73,30.22,10.0,SSW,12.7,-,N/A,,Clear,200,2013-04-03 04:53:00
9:53 PM,37.0,30.0,76,30.25,10.0,Variable,3.5,-,N/A,,Mostly Cloudy,0,2013-04-03 05:53:00
10:34 PM,33.8,28.4,81,30.25,10.0,Calm,Calm,-,N/A,,Overcast,0,2013-04-03 06:34:00
10:53 PM,35.1,28.9,78,30.26,10.0,NNE,3.5,-,N/A,,Overcast,20,2013-04-03 06:53:00
11:53 PM,35.1,30.0,82,30.27,10.0,Calm,Calm,-,N/A,,Overcast,0,2013-04-03 07:53:00